createdAt,value
2018-06-28T00:00:37.536Z,17.66
2018-06-28T00:05:40.615Z,17.64
2018-06-28T00:10:43.746Z,17.51
2018-06-28T00:15:46.850Z,17.45
2018-06-28T00:20:50.069Z,17.48
2018-06-28T00:25:54.107Z,17.31
2018-06-28T00:30:57.391Z,17.26
2018-06-28T00:36:00.710Z,17.10
2018-06-28T00:41:04.045Z,16.94
2018-06-28T00:46:07.782Z,16.82
2018-06-28T00:51:10.971Z,16.92
2018-06-28T00:56:14.252Z,16.90
2018-06-28T01:01:17.394Z,16.78
2018-06-28T01:06:20.480Z,16.64
2018-06-28T01:11:23.671Z,16.52
2018-06-28T01:16:27.351Z,16.49
2018-06-28T01:21:30.482Z,16.39
2018-06-28T01:26:33.611Z,16.28
2018-06-28T01:31:36.768Z,16.18
2018-06-28T01:36:39.949Z,16.12
2018-06-28T01:41:54.414Z,16.06
2018-06-28T01:46:57.589Z,15.90
2018-06-28T01:52:00.696Z,15.86
2018-06-28T01:57:03.803Z,15.75
2018-06-28T02:02:06.949Z,15.74
2018-06-28T02:07:10.553Z,15.65
2018-06-28T02:12:16.295Z,15.39
2018-06-28T02:17:20.683Z,15.18
2018-06-28T02:22:24.148Z,15.40
2018-06-28T02:27:28.016Z,15.44
2018-06-28T02:32:33.113Z,15.30
2018-06-28T02:37:36.862Z,15.31
2018-06-28T02:42:40.636Z,15.21
2018-06-28T02:47:44.044Z,15.03
2018-06-28T02:52:47.651Z,15.04
2018-06-28T02:57:50.884Z,14.96
2018-06-28T03:02:54.119Z,15.03
2018-06-28T03:07:57.284Z,15.09
2018-06-28T03:13:00.430Z,15.41
2018-06-28T03:18:03.618Z,15.39
2018-06-28T03:23:11.226Z,15.47
2018-06-28T03:28:15.063Z,15.62
2018-06-28T03:33:18.348Z,15.70
2018-06-28T03:38:28.334Z,15.80
2018-06-28T03:43:31.544Z,15.99
2018-06-28T03:48:34.627Z,16.03
2018-06-28T03:53:37.812Z,16.03
2018-06-28T03:58:41.139Z,16.05
2018-06-28T04:03:44.207Z,16.22
2018-06-28T04:08:47.362Z,16.38
2018-06-28T04:13:51.058Z,16.58
2018-06-28T04:18:54.491Z,16.73
2018-06-28T04:23:58.192Z,17.01
2018-06-28T04:29:01.648Z,19.16
2018-06-28T04:34:05.975Z,22.29
2018-06-28T04:39:09.432Z,23.71
2018-06-28T04:44:12.546Z,25.07
2018-06-28T04:49:15.725Z,26.89
2018-06-28T04:54:19.046Z,29.35
2018-06-28T04:59:22.207Z,30.51
2018-06-28T05:04:25.733Z,30.08
2018-06-28T05:09:28.861Z,30.29
2018-06-28T05:14:32.706Z,29.40
2018-06-28T05:19:35.957Z,29.20
2018-06-28T05:24:39.202Z,29.12
2018-06-28T05:29:42.355Z,29.59
2018-06-28T05:34:45.526Z,31.30
2018-06-28T05:39:50.742Z,32.41
2018-06-28T05:44:53.878Z,33.82
2018-06-28T05:49:57.079Z,33.47
2018-06-28T05:55:00.245Z,33.62
2018-06-28T06:00:06.454Z,32.93
2018-06-28T06:05:10.285Z,33.47
2018-06-28T06:10:13.813Z,33.10
2018-06-28T06:15:16.910Z,31.54
2018-06-28T06:20:20.049Z,31.51
2018-06-28T06:25:23.217Z,29.14
2018-06-28T06:30:26.270Z,33.41
2018-06-28T06:35:29.650Z,35.75
2018-06-28T06:40:32.855Z,32.70
2018-06-28T06:45:36.085Z,33.80
2018-06-28T06:50:39.303Z,34.63
2018-06-28T06:55:42.457Z,34.81
2018-06-28T07:00:45.624Z,32.73
2018-06-28T07:05:49.587Z,33.55
2018-06-28T07:10:52.722Z,33.87
2018-06-28T07:15:55.940Z,34.46
2018-06-28T07:20:59.037Z,36.59
2018-06-28T07:26:02.841Z,34.09
2018-06-28T07:31:06.089Z,31.71
2018-06-28T07:36:09.396Z,32.60
2018-06-28T07:41:12.972Z,34.33
2018-06-28T07:46:16.117Z,34.96
2018-06-28T07:51:19.597Z,35.75
2018-06-28T07:56:23.241Z,32.44
2018-06-28T08:01:26.487Z,35.19
2018-06-28T08:06:29.651Z,34.60
2018-06-28T08:11:33.062Z,34.90
2018-06-28T08:16:36.229Z,34.22
2018-06-28T08:21:39.551Z,36.63
2018-06-28T08:26:42.986Z,34.80
2018-06-28T08:31:46.146Z,34.11
2018-06-28T08:36:49.345Z,35.06
2018-06-28T08:41:52.503Z,33.05
2018-06-28T08:46:55.677Z,34.54
2018-06-28T08:51:58.962Z,33.93
2018-06-28T08:57:02.219Z,35.07
2018-06-28T09:02:05.731Z,33.66
2018-06-28T09:07:09.065Z,30.80
2018-06-28T09:12:12.213Z,28.70
2018-06-28T09:17:15.368Z,28.55
2018-06-28T09:22:18.492Z,28.48
2018-06-28T09:27:21.615Z,29.65
2018-06-28T09:32:24.850Z,29.09
2018-06-28T09:37:28.023Z,30.30
2018-06-28T09:42:31.191Z,30.96
2018-06-28T09:47:34.448Z,30.42
2018-06-28T09:52:37.676Z,29.60
2018-06-28T09:57:40.974Z,29.83
2018-06-28T10:02:44.165Z,28.81
2018-06-28T10:07:47.310Z,28.97
2018-06-28T10:12:50.455Z,28.94
2018-06-28T10:17:54.543Z,28.63
2018-06-28T10:22:58.224Z,28.29
2018-06-28T10:28:01.477Z,28.09
2018-06-28T10:33:04.719Z,29.90
2018-06-28T10:38:07.916Z,28.36
2018-06-28T10:43:11.145Z,29.11
2018-06-28T10:48:15.028Z,30.13
2018-06-28T10:53:18.896Z,31.20
2018-06-28T10:58:21.966Z,31.31
2018-06-28T11:03:25.819Z,29.56
2018-06-28T11:08:28.993Z,30.57
2018-06-28T11:13:32.202Z,28.93
2018-06-28T11:18:35.556Z,29.40
2018-06-28T11:23:38.779Z,30.19
2018-06-28T11:28:41.925Z,29.60
2018-06-28T11:33:45.016Z,30.39
2018-06-28T11:38:48.176Z,29.71
2018-06-28T11:43:51.323Z,27.43
2018-06-28T11:48:54.376Z,27.70
2018-06-28T11:53:57.482Z,29.31
2018-06-28T11:59:00.555Z,29.97
2018-06-28T12:04:03.877Z,28.64
2018-06-28T12:09:07.613Z,28.37
2018-06-28T12:14:10.803Z,28.35
2018-06-28T12:19:13.986Z,30.61
2018-06-28T12:24:17.105Z,30.52
2018-06-28T12:29:20.226Z,29.26
2018-06-28T12:34:23.363Z,28.58
2018-06-28T12:39:26.623Z,29.98
2018-06-28T12:44:29.730Z,29.41
2018-06-28T12:49:32.980Z,28.42
2018-06-28T12:54:36.453Z,27.97
2018-06-28T12:59:39.714Z,27.81
2018-06-28T13:04:43.082Z,27.38
2018-06-28T13:09:46.225Z,28.15
2018-06-28T13:14:49.413Z,30.33
2018-06-28T13:19:52.715Z,29.78
2018-06-28T13:24:55.823Z,28.45
2018-06-28T13:29:59.006Z,28.24
2018-06-28T13:35:02.424Z,28.54
2018-06-28T13:40:05.715Z,28.14
2018-06-28T13:45:09.027Z,27.37
2018-06-28T13:50:12.225Z,27.29
2018-06-28T13:55:15.456Z,27.76
2018-06-28T14:00:18.840Z,28.38
2018-06-28T14:05:22.024Z,28.54
2018-06-28T14:10:25.377Z,28.07
2018-06-28T14:15:28.605Z,27.95
2018-06-28T14:20:32.264Z,28.16
2018-06-28T14:25:35.462Z,28.25
2018-06-28T14:30:38.732Z,28.76
2018-06-28T14:35:41.899Z,29.21
2018-06-28T14:40:45.052Z,29.57
2018-06-28T14:45:48.227Z,30.56
2018-06-28T14:50:51.443Z,30.63
2018-06-28T14:55:54.615Z,29.92
2018-06-28T15:00:57.779Z,28.72
2018-06-28T15:06:00.957Z,28.75
2018-06-28T15:11:04.237Z,28.82
2018-06-28T15:16:07.720Z,28.97
2018-06-28T15:21:11.042Z,28.74
2018-06-28T15:26:14.136Z,28.20
2018-06-28T15:31:17.462Z,27.20
2018-06-28T15:36:20.677Z,26.58
2018-06-28T15:41:24.368Z,26.49
2018-06-28T15:46:27.831Z,26.59
2018-06-28T15:51:31.053Z,27.04
2018-06-28T15:56:34.257Z,27.21
2018-06-28T16:01:37.440Z,27.68
2018-06-28T16:06:40.668Z,27.49
2018-06-28T16:11:43.994Z,27.44
2018-06-28T16:16:47.128Z,27.42
2018-06-28T16:21:50.256Z,27.29
2018-06-28T16:26:53.416Z,28.27
2018-06-28T16:31:56.508Z,27.42
2018-06-28T16:36:59.602Z,26.78
2018-06-28T16:42:03.004Z,26.93
2018-06-28T16:47:06.181Z,27.56
2018-06-28T16:52:09.695Z,26.95
2018-06-28T16:57:12.951Z,27.00
2018-06-28T17:02:16.091Z,27.29
2018-06-28T17:07:19.238Z,27.07
2018-06-28T17:12:22.366Z,27.41
2018-06-28T17:17:25.469Z,27.39
2018-06-28T17:22:28.728Z,26.72
2018-06-28T17:27:31.958Z,26.87
2018-06-28T17:32:35.259Z,26.39
2018-06-28T17:37:38.816Z,26.39
2018-06-28T17:42:42.066Z,26.14
2018-06-28T17:47:45.288Z,26.08
2018-06-28T17:52:48.369Z,25.74
2018-06-28T17:57:51.582Z,25.58
2018-06-28T18:02:54.831Z,25.56
2018-06-28T18:07:58.246Z,25.57
2018-06-28T18:13:01.578Z,25.69
2018-06-28T18:18:04.962Z,25.54
2018-06-28T18:23:08.575Z,25.53
2018-06-28T18:28:12.681Z,25.64
2018-06-28T18:33:15.851Z,25.97
2018-06-28T18:38:19.117Z,25.75
2018-06-28T18:43:22.501Z,25.55
2018-06-28T18:48:26.239Z,25.59
2018-06-28T18:53:29.413Z,25.24
2018-06-28T18:58:32.678Z,25.07
2018-06-28T19:03:36.590Z,24.97
2018-06-28T19:08:40.311Z,24.80
2018-06-28T19:13:43.344Z,24.82
2018-06-28T19:18:54.942Z,24.57
2018-06-28T19:24:01.290Z,24.16
2018-06-28T19:29:05.112Z,23.95
2018-06-28T19:34:08.881Z,23.84
2018-06-28T19:39:14.240Z,23.69
2018-06-28T19:44:20.888Z,23.50
2018-06-28T19:49:25.319Z,23.29
2018-06-28T19:54:29.600Z,23.06
2018-06-28T19:59:33.100Z,22.91
2018-06-28T20:04:36.304Z,22.71
2018-06-28T20:09:39.491Z,22.65
2018-06-28T20:14:45.557Z,22.50
2018-06-28T20:19:48.887Z,22.43
2018-06-28T20:24:52.579Z,22.07
2018-06-28T20:29:56.354Z,21.87
2018-06-28T20:34:59.646Z,21.83
2018-06-28T20:40:03.002Z,21.81
2018-06-28T20:45:06.347Z,21.74
2018-06-28T20:50:09.469Z,21.72
2018-06-28T20:55:12.805Z,21.44
2018-06-28T21:00:15.998Z,21.25
2018-06-28T21:05:19.183Z,21.08
2018-06-28T21:10:22.432Z,21.11
2018-06-28T21:15:25.562Z,20.82
2018-06-28T21:20:28.759Z,20.72
2018-06-28T21:25:41.680Z,20.50
2018-06-28T21:30:57.665Z,20.49
2018-06-28T21:36:01.192Z,20.52
2018-06-28T21:41:04.630Z,20.38
2018-06-28T21:46:07.755Z,20.19
2018-06-28T21:51:10.854Z,20.06
2018-06-28T21:56:14.173Z,19.94
2018-06-28T22:01:17.400Z,19.81
2018-06-28T22:06:20.576Z,19.90
2018-06-28T22:11:24.478Z,20.09
2018-06-28T22:16:27.605Z,20.12
2018-06-28T22:21:30.778Z,19.94
2018-06-28T22:26:33.898Z,19.60
2018-06-28T22:31:37.278Z,19.33
2018-06-28T22:36:40.654Z,19.17
2018-06-28T22:41:44.036Z,19.29
2018-06-28T22:46:47.213Z,19.22
2018-06-28T22:51:50.578Z,19.28
2018-06-28T22:56:53.696Z,19.24
2018-06-28T23:01:56.848Z,19.14
2018-06-28T23:07:00.206Z,19.08
2018-06-28T23:12:03.407Z,18.94
2018-06-28T23:17:06.559Z,18.74
2018-06-28T23:22:19.810Z,18.56
2018-06-28T23:27:23.065Z,18.31
2018-06-28T23:32:26.215Z,18.14
2018-06-28T23:37:29.449Z,18.28
2018-06-28T23:42:32.716Z,18.36
2018-06-28T23:47:36.020Z,18.32
2018-06-28T23:52:39.103Z,18.23
2018-06-28T23:57:42.351Z,18.12
